Terminal Aerodrome Forecast
Issued by NWS

Home | Current Version | Previous Version | Text Only | Print | Product List | Glossary On
Versions: 1 2 3 4 5 6 7 8 9 10 11 12 13 14 15 16 17 18 19
000
FTUS41 KPBZ 210500
TAFAGC
TAF
KAGC 210522Z 2106/2206 22005KT 6SM -SHRA BR OVC015
     FM210800 25005KT P6SM BKN008
     FM211500 28008KT P6SM -SHRA OVC015
     FM212100 31008KT P6SM VCSH BKN020=

USA.gov is the U.S. government's official web portal to all federal, state and local government web resources and services.